Hawi, Hawaii
Current Conditions -  °F | °C
As of 1:56 PM on Sunday 23 Nov 2014 (Local Time) from PHSF Reporting Station
Few Clouds Few Clouds  
Wind Chill: 18°   Ceiling: Unl
Heat Index: 18°   Visibility: 9mi
Dew Point: 12°   Wind: 9mph
Humidity: 70%   Direction: 260°W
Pressure: 30.25"   Gusts: NA
Location:  20.24°N, 155.82°W
Report Text: PHSF 232356Z AUTO 26008KT 9SM FEW016 18/12 A3025 RMK AO2 SLP142 T01760121 10205 20131 56018 $
Loading
Personal Weather Stations






























Interactive Weather Map New forecast layout! Learn more

10-Day Weather Forecast

Advertisements
Track Severe Weather on mobile